Time;durP1;ratioP1;P1;durP2;ratioP2;P2;SDS_P1;SDS_P2;PMS_P1;PMS_P2;Temp;Humidity;BMP_temperature;BMP_pressure;BME280_temperature;BME280_humidity;BME280_pressure;Samples;Min_cycle;Max_cycle;Signal;HPM_P1;HPM_P2
2022/03/19 00:02:22;;;;;;;;;1.00;1.00;;;;;20.60;28.80;103036.44;5076795;27;45340;-56
2022/03/19 00:04:48;;;;;;;;;2.00;2.00;;;;;20.59;28.23;103032.06;5076980;28;45460;-49
2022/03/19 00:07:14;;;;;;;;;3.00;1.00;;;;;20.58;28.83;103032.97;5077017;27;45597;-53
2022/03/19 00:09:40;;;;;;;;;1.75;1.75;;;;;20.55;28.92;103030.41;5076932;27;46175;-53
2022/03/19 00:12:07;;;;;;;;;1.50;1.00;;;;;20.53;28.60;103038.34;5075393;27;45339;-55
2022/03/19 00:14:32;;;;;;;;;1.00;1.00;;;;;20.52;28.67;103031.31;5076942;27;45344;-49
2022/03/19 00:16:59;;;;;;;;;3.00;3.00;;;;;20.51;28.70;103039.28;5076719;27;45378;-54
2022/03/19 00:19:24;;;;;;;;;2.00;2.00;;;;;20.49;28.53;103027.88;5076418;27;46242;-53
2022/03/19 00:21:51;;;;;;;;;2.50;1.75;;;;;20.48;28.85;103031.41;5076452;27;45288;-56
2022/03/19 00:24:16;;;;;;;;;1.00;1.00;;;;;20.47;28.34;103035.84;5075492;28;45415;-54
2022/03/19 00:26:42;;;;;;;;;2.00;0.75;;;;;20.46;28.55;103030.56;5076914;27;45324;-56
2022/03/19 00:29:07;;;;;;;;;2.25;2.00;;;;;20.44;28.51;103024.50;5076217;27;46703;-57
2022/03/19 00:31:33;;;;;;;;;3.00;2.00;;;;;20.43;28.82;103025.41;5076799;27;45256;-48
2022/03/19 00:33:59;;;;;;;;;2.00;2.00;;;;;20.42;28.55;103028.94;5076628;27;45356;-53
2022/03/19 00:36:24;;;;;;;;;1.75;1.75;;;;;20.41;28.48;103025.41;5076686;27;45458;-51
2022/03/19 00:38:49;;;;;;;;;1.75;1.75;;;;;20.41;28.61;103029.81;5076272;27;45536;-53
2022/03/19 00:41:15;;;;;;;;;2.00;1.75;;;;;20.39;28.64;103028.09;5076032;27;45441;-53
2022/03/19 00:43:41;;;;;;;;;2.75;1.50;;;;;20.38;28.66;103022.84;5076545;27;45212;-49
2022/03/19 00:46:06;;;;;;;;;1.00;1.00;;;;;20.37;28.44;103023.75;5076845;27;45545;-50
2022/03/19 00:48:31;;;;;;;;;1.75;1.00;;;;;20.34;28.84;103022.03;5076449;27;45900;-55
2022/03/19 00:50:57;;;;;;;;;1.00;1.00;;;;;20.35;29.04;103029.03;5077760;27;45322;-53
2022/03/19 00:53:22;;;;;;;;;1.25;1.25;;;;;20.34;28.54;103024.66;5079910;27;45466;-55
2022/03/19 00:55:47;;;;;;;;;2.00;1.00;;;;;20.33;28.84;103019.44;5079871;27;45500;-53
2022/03/19 00:58:13;;;;;;;;;1.00;1.00;;;;;20.31;28.59;103022.09;5078320;27;46087;-50
2022/03/19 01:00:38;;;;;;;;;2.00;2.00;;;;;20.31;29.05;103022.09;5079312;27;45458;-51
2022/03/19 01:03:04;;;;;;;;;2.50;2.50;;;;;20.29;28.63;103020.38;5079949;27;45421;-49
2022/03/19 01:05:29;;;;;;;;;3.00;2.00;;;;;20.28;28.33;103016.03;5079996;27;45448;-50
2022/03/19 01:07:56;;;;;;;;;2.75;2.75;;;;;20.26;28.75;103007.28;5079481;27;46137;-54
2022/03/19 01:10:24;;;;;;;;;2.00;2.00;;;;;20.27;28.96;103009.88;5078043;28;45437;-57
2022/03/19 01:12:51;;;;;;;;;2.00;2.00;;;;;20.28;28.83;103003.72;5079746;27;45331;-55
2022/03/19 01:15:16;;;;;;;;;1.50;1.50;;;;;20.27;28.78;103004.63;5079692;27;45189;-54
2022/03/19 01:17:42;;;;;;;;;2.25;1.00;;;;;20.26;29.02;103002.88;5079404;27;45914;-54
2022/03/19 01:20:10;;;;;;;;;1.00;1.00;;;;;20.26;28.36;103005.50;5079516;27;45762;-47
2022/03/19 01:22:40;;;;;;;;;1.25;1.00;;;;;20.23;28.84;103002.94;5079623;27;45326;-56
2022/03/19 01:25:07;;;;;;;;;2.00;1.00;;;;;20.23;28.38;102997.66;5079791;27;45236;-53
2022/03/19 01:27:33;;;;;;;;;1.75;1.50;;;;;20.21;28.32;103000.34;5079027;27;45476;-50
2022/03/19 01:29:59;;;;;;;;;1.00;1.00;;;;;20.20;28.50;102998.59;5079231;27;45416;-48
2022/03/19 01:32:25;;;;;;;;;4.00;0.75;;;;;20.19;28.24;102991.59;5079290;27;45382;-56
2022/03/19 01:34:51;;;;;;;;;1.00;1.00;;;;;20.18;28.75;102996.91;5079414;27;45624;-49
2022/03/19 01:37:16;;;;;;;;;1.75;1.75;;;;;20.16;28.43;102996.06;5078988;27;45322;-54
2022/03/19 01:39:41;;;;;;;;;1.00;1.00;;;;;20.15;28.59;102995.22;5079174;27;45332;-53
2022/03/19 01:42:07;;;;;;;;;1.00;1.00;;;;;20.14;28.52;102987.31;5079369;27;45400;-54
2022/03/19 01:44:33;;;;;;;;;2.00;1.00;;;;;20.13;28.16;102985.59;5079430;27;45548;-55
2022/03/19 01:47:03;;;;;;;;;2.00;2.00;;;;;20.13;28.16;102988.22;5078865;27;46096;-53
2022/03/19 01:49:30;;;;;;;;;2.00;2.00;;;;;20.11;28.78;102990.88;5078998;27;45272;-55
2022/03/19 01:51:56;;;;;;;;;3.00;3.00;;;;;20.10;28.52;102983.88;5078885;27;45355;-52
2022/03/19 01:54:32;;;;;;;;;1.00;1.00;;;;;20.10;28.17;102988.28;5079110;27;45309;-43
2022/03/19 01:56:59;;;;;;;;;4.25;1.75;;;;;20.09;28.16;102995.31;5077350;27;46486;-44
2022/03/19 01:59:27;;;;;;;;;2.00;2.00;;;;;20.06;28.55;102987.50;5078722;27;45286;-47
2022/03/19 02:01:54;;;;;;;;;2.50;1.25;;;;;20.06;28.30;102984.88;5077584;27;45299;-43
2022/03/19 02:04:21;;;;;;;;;2.25;2.00;;;;;20.06;28.25;102977.81;5078779;27;45435;-47
2022/03/19 02:06:46;;;;;;;;;1.00;1.00;;;;;20.04;28.51;102981.38;5078503;27;47210;-49
2022/03/19 02:09:12;;;;;;;;;1.00;1.00;;;;;20.04;28.37;102979.59;5078692;27;45304;-45
2022/03/19 02:11:37;;;;;;;;;1.00;1.00;;;;;20.04;28.02;102971.72;5079056;27;45441;-46
2022/03/19 02:14:04;;;;;;;;;1.00;1.00;;;;;20.03;28.22;102979.66;5078899;27;45244;-47
2022/03/19 02:16:29;;;;;;;;;2.00;2.00;;;;;20.01;28.09;102973.53;5078129;27;45507;-48
2022/03/19 02:19:02;;;;;;;;;2.25;1.00;;;;;20.00;28.56;102970.06;5078485;27;45208;-47
2022/03/19 02:21:47;;;;;;;;;2.00;2.00;;;;;20.01;28.12;102968.28;5077873;27;45421;-51
2022/03/19 02:26:58;;;;;;;;;1.50;1.50;;;;;19.99;28.24;102970.06;5077130;28;45700;-50
2022/03/19 02:29:24;;;;;;;;;0.75;0.75;;;;;19.97;28.28;102959.56;5078210;27;45888;-52
2022/03/19 02:31:58;;;;;;;;;1.00;1.00;;;;;19.97;28.64;102956.94;5078269;27;45356;-50
2022/03/19 02:34:24;;;;;;;;;1.75;1.25;;;;;19.96;28.40;102955.19;5078414;27;45330;-46
2022/03/19 02:36:49;;;;;;;;;3.00;1.00;;;;;19.94;28.14;102943.84;5077977;27;46098;-51
2022/03/19 02:39:30;;;;;;;;;1.00;1.00;;;;;19.95;28.32;102942.09;5078099;27;45309;-53
2022/03/19 02:41:58;;;;;;;;;1.00;1.00;;;;;19.95;28.50;102948.19;5078129;27;45358;-53
2022/03/19 02:44:23;;;;;;;;;2.00;2.00;;;;;19.94;28.64;102941.19;5078434;27;45510;-52
2022/03/19 02:46:54;;;;;;;;;2.50;1.00;;;;;19.93;28.38;102945.59;5078041;27;46157;-50
2022/03/19 02:49:19;;;;;;;;;1.00;1.00;;;;;19.92;28.27;102941.25;5077931;28;45454;-50
2022/03/19 02:51:46;;;;;;;;;3.00;1.75;;;;;19.91;28.52;102936.00;5077971;27;45420;-51
2022/03/19 02:54:15;;;;;;;;;1.00;1.00;;;;;19.90;28.45;102937.75;5078574;27;45545;-47
2022/03/19 02:56:42;;;;;;;;;1.00;1.00;;;;;19.91;28.40;102941.25;5078004;27;46091;-44
2022/03/19 02:59:22;;;;;;;;;1.50;1.50;;;;;19.88;28.28;102934.28;5077982;27;45864;-49
2022/03/19 03:01:50;;;;;;;;;2.25;2.00;;;;;19.89;28.57;102936.03;5077868;27;45179;-49
2022/03/19 03:04:15;;;;;;;;;1.50;1.25;;;;;19.89;28.60;102928.13;5078159;27;45321;-50
2022/03/19 03:06:44;;;;;;;;;2.25;2.00;;;;;19.88;28.55;102925.53;5077888;27;45284;-52
2022/03/19 03:09:11;;;;;;;;;4.00;1.00;;;;;19.87;28.49;102915.91;5076518;27;46001;-49
2022/03/19 03:11:37;;;;;;;;;1.50;1.50;;;;;19.86;28.28;102912.38;5077743;27;45421;-53
2022/03/19 03:14:04;;;;;;;;;1.25;1.25;;;;;19.85;28.46;102915.03;5077558;27;45264;-50
2022/03/19 03:16:31;;;;;;;;;2.00;2.00;;;;;19.84;28.50;102901.03;5077339;27;46203;-52
2022/03/19 03:18:58;;;;;;;;;2.00;2.00;;;;;19.84;28.28;102911.56;5077561;27;45941;-53
2022/03/19 03:21:25;;;;;;;;;3.50;2.00;;;;;19.83;28.31;102906.28;5077567;27;45553;-53
2022/03/19 03:23:51;;;;;;;;;2.00;2.00;;;;;19.82;28.49;102913.34;5077738;27;45284;-52
2022/03/19 03:26:16;;;;;;;;;1.00;1.00;;;;;19.82;28.36;102905.44;5077484;27;45287;-47
2022/03/19 03:28:42;;;;;;;;;1.50;1.50;;;;;19.82;28.29;102912.44;5076440;27;45372;-49
2022/03/19 03:31:07;;;;;;;;;2.75;2.25;;;;;19.81;28.43;102915.97;5077426;27;45258;-53
2022/03/19 03:33:33;;;;;;;;;3.00;3.00;;;;;19.80;28.01;102909.88;5077679;27;45364;-51
2022/03/19 03:35:59;;;;;;;;;1.00;1.00;;;;;19.81;28.21;102914.22;5077139;27;46490;-55
2022/03/19 03:38:24;;;;;;;;;1.75;1.75;;;;;19.80;28.12;102903.72;5077245;27;45768;-51
2022/03/19 03:40:51;;;;;;;;;4.50;3.00;;;;;19.80;28.71;102911.59;5075869;28;45354;-55
2022/03/19 03:43:16;;;;;;;;;1.75;1.75;;;;;19.77;28.19;102902.03;5077565;27;45292;-54
2022/03/19 03:45:42;;;;;;;;;2.00;2.00;;;;;19.77;28.53;102889.75;5077500;27;45610;-49
2022/03/19 03:48:07;;;;;;;;;2.25;1.00;;;;;19.76;28.45;102888.00;5077158;27;45405;-51
2022/03/19 03:50:32;;;;;;;;;1.00;1.00;;;;;19.76;28.59;102890.63;5077219;27;45424;-51
2022/03/19 03:52:58;;;;;;;;;2.00;2.00;;;;;19.77;28.57;102904.66;5077235;27;45551;-52
2022/03/19 03:55:23;;;;;;;;;4.75;3.00;;;;;19.75;28.20;102896.78;5076843;27;45381;-49
2022/03/19 03:57:49;;;;;;;;;2.25;2.25;;;;;19.75;28.16;102907.31;5076903;27;45359;-50
2022/03/19 04:00:15;;;;;;;;;4.00;3.00;;;;;19.76;28.51;102909.06;5077253;27;45748;-45
2022/03/19 04:02:41;;;;;;;;;1.75;1.00;;;;;19.75;28.04;102902.06;5077138;27;45579;-48
2022/03/19 04:05:09;;;;;;;;;2.00;2.00;;;;;19.73;28.34;102903.00;5076755;27;46106;-49
2022/03/19 04:07:34;;;;;;;;;3.50;3.00;;;;;19.74;28.69;102913.47;5076679;27;45872;-49
2022/03/19 04:09:59;;;;;;;;;3.00;3.00;;;;;19.74;28.25;102907.34;5077033;27;45220;-49
2022/03/19 04:12:25;;;;;;;;;2.00;2.00;;;;;19.71;28.28;102900.38;5076995;27;45293;-54
2022/03/19 04:14:52;;;;;;;;;1.00;1.00;;;;;19.72;28.61;102902.09;5076386;27;45437;-51
2022/03/19 04:17:18;;;;;;;;;4.50;3.25;;;;;19.71;28.55;102900.38;5076672;27;45894;-50
2022/03/19 04:19:43;;;;;;;;;2.50;2.50;;;;;19.73;28.70;102900.38;5077019;27;45438;-51
2022/03/19 04:22:08;;;;;;;;;3.25;2.00;;;;;19.70;28.31;102896.00;5076671;27;45289;-50
2022/03/19 04:24:34;;;;;;;;;3.00;3.00;;;;;19.71;28.55;102896.88;5076174;27;45314;-47
2022/03/19 04:26:59;;;;;;;;;3.00;3.00;;;;;19.70;28.56;102897.78;5075919;27;45522;-45
2022/03/19 04:29:25;;;;;;;;;3.00;2.25;;;;;19.70;28.67;102903.03;5075494;28;45358;-53
2022/03/19 04:31:50;;;;;;;;;4.00;3.00;;;;;19.69;28.53;102893.41;5076640;27;45503;-49
2022/03/19 04:34:16;;;;;;;;;3.25;3.25;;;;;19.68;28.61;102896.94;5076511;27;47042;-46
2022/03/19 04:36:41;;;;;;;;;2.75;2.75;;;;;19.68;28.24;102902.19;5092053;27;45373;-52
2022/03/19 04:39:08;;;;;;;;;3.00;3.00;;;;;19.69;28.25;102901.31;5076439;27;45487;-52
2022/03/19 04:41:35;;;;;;;;;2.75;2.50;;;;;19.67;28.88;102898.72;5076586;27;45460;-49
2022/03/19 04:44:02;;;;;;;;;4.00;4.00;;;;;19.66;28.15;102896.97;5076175;27;46331;-50
2022/03/19 04:46:27;;;;;;;;;3.00;3.00;;;;;19.65;28.57;102889.97;5076210;28;45224;-46
2022/03/19 04:48:53;;;;;;;;;2.00;2.00;;;;;19.66;28.30;102893.47;5076424;27;45403;-50
2022/03/19 04:51:21;;;;;;;;;6.50;4.00;;;;;19.65;28.78;102884.72;5076372;27;45355;-48
2022/03/19 04:53:51;;;;;;;;;3.50;3.50;;;;;19.65;28.37;102889.97;5076443;27;45428;-51
2022/03/19 04:56:18;;;;;;;;;3.75;3.00;;;;;19.64;28.66;102890.88;5076479;27;45289;-50
2022/03/19 04:58:44;;;;;;;;;5.00;5.00;;;;;19.65;28.76;102886.47;5076585;27;45353;-48
2022/03/19 05:01:09;;;;;;;;;5.25;4.25;;;;;19.66;28.78;102901.34;5076252;27;45343;-51
2022/03/19 05:03:35;;;;;;;;;7.75;3.50;;;;;19.66;28.45;102890.84;5075811;27;45529;-51
2022/03/19 05:06:00;;;;;;;;;5.00;5.00;;;;;19.66;28.76;102872.41;5075936;27;45384;-51
2022/03/19 05:08:25;;;;;;;;;6.00;4.50;;;;;19.67;28.79;102885.56;5076172;27;45387;-51
2022/03/19 05:13:35;;;;;;;;;6.50;4.00;;;;;19.70;28.99;102892.53;5075905;28;45390;-49
2022/03/19 05:16:01;;;;;;;;;5.00;5.00;;;;;19.69;28.56;102890.78;5075630;27;45548;-48
2022/03/19 05:18:26;;;;;;;;;7.00;5.00;;;;;19.71;28.81;102892.47;5075944;28;45445;-52
2022/03/19 05:20:52;;;;;;;;;5.75;5.50;;;;;19.70;29.03;102893.38;5076196;27;45384;-48
2022/03/19 05:23:18;;;;;;;;;10.00;6.00;;;;;19.71;28.51;102889.00;5076088;27;46345;-49
2022/03/19 05:25:43;;;;;;;;;8.00;8.00;;;;;19.72;28.42;102893.38;5075537;27;45323;-54
2022/03/19 05:28:09;;;;;;;;;13.75;12.75;;;;;19.68;28.64;102894.31;5076050;27;45314;-54
2022/03/19 05:30:35;;;;;;;;;12.50;9.25;;;;;19.60;28.04;102889.19;5076120;27;45365;-55
2022/03/19 05:33:01;;;;;;;;;12.50;11.50;;;;;19.52;28.04;102893.72;5075668;27;46341;-52
2022/03/19 05:35:27;;;;;;;;;12.00;10.75;;;;;19.45;28.15;102893.84;5075854;27;45861;-51
2022/03/19 05:37:52;;;;;;;;;10.50;10.50;;;;;19.42;28.10;102893.91;5078842;27;45778;-51
2022/03/19 05:40:17;;;;;;;;;12.25;8.75;;;;;19.38;28.25;102893.97;5079992;27;45563;-51
2022/03/19 05:42:43;;;;;;;;;14.50;14.25;;;;;19.33;28.23;102891.44;5079169;27;45361;-51
2022/03/19 05:45:15;;;;;;;;;14.75;12.00;;;;;19.31;28.29;102887.97;5079130;27;45298;-55
2022/03/19 05:47:40;;;;;;;;;18.25;15.25;;;;;19.24;28.01;102889.81;5079039;27;45267;-55
2022/03/19 05:50:07;;;;;;;;;16.75;13.00;;;;;19.19;28.10;102893.44;5079379;27;45608;-50
2022/03/19 05:52:32;;;;;;;;;16.25;15.00;;;;;19.13;28.36;102897.88;5078870;27;46468;-50
2022/03/19 05:54:58;;;;;;;;;13.50;13.00;;;;;19.09;28.18;102885.69;5078771;27;45491;-51
2022/03/19 05:57:23;;;;;;;;;18.25;13.75;;;;;19.07;28.05;102897.13;5078858;27;45662;-51
2022/03/19 05:59:48;;;;;;;;;16.67;15.33;;;;;19.05;28.21;102898.91;5079349;27;45637;-49
2022/03/19 06:02:14;;;;;;;;;15.00;13.00;;;;;19.03;28.27;102900.69;5078620;27;45352;-47
2022/03/19 06:04:39;;;;;;;;;21.25;14.25;;;;;18.99;27.95;102892.00;5078861;27;45360;-50
2022/03/19 06:07:04;;;;;;;;;12.25;11.25;;;;;18.97;28.33;102894.63;5078873;27;45373;-48
2022/03/19 06:09:30;;;;;;;;;14.00;14.00;;;;;18.98;28.08;102892.88;5079160;27;45453;-47
2022/03/19 06:11:55;;;;;;;;;12.75;12.75;;;;;18.97;28.34;102891.16;5078565;27;46282;-52
2022/03/19 06:14:21;;;;;;;;;15.50;13.00;;;;;18.96;28.41;102892.03;5078896;27;45385;-53
2022/03/19 06:16:46;;;;;;;;;18.25;15.50;;;;;18.96;28.04;102894.66;5078665;27;45388;-49
2022/03/19 06:19:12;;;;;;;;;13.50;11.75;;;;;18.95;28.34;102890.31;5078898;27;45434;-51
2022/03/19 06:21:40;;;;;;;;;19.75;15.25;;;;;18.94;28.17;102894.72;5078332;27;46050;-55
2022/03/19 06:24:07;;;;;;;;;16.00;15.00;;;;;18.90;28.03;102895.59;5078630;27;45292;-52
2022/03/19 06:26:33;;;;;;;;;18.75;15.75;;;;;18.87;28.23;102895.63;5078679;27;45481;-54
2022/03/19 06:28:59;;;;;;;;;23.75;16.25;;;;;18.88;28.30;102901.78;5078691;27;45583;-50
2022/03/19 06:31:25;;;;;;;;;19.75;17.75;;;;;18.84;27.88;102899.19;5077061;27;45876;-52
2022/03/19 06:33:50;;;;;;;;;20.75;20.75;;;;;18.80;28.39;102904.50;5094585;27;45842;-46
2022/03/19 06:39:00;;;;;;;;;20.75;18.25;;;;;18.71;28.37;102900.25;5078457;27;45458;-54
2022/03/19 06:41:25;;;;;;;;;22.50;17.75;;;;;18.66;28.38;102896.84;5078056;27;45264;-49
2022/03/19 06:43:51;;;;;;;;;18.75;18.25;;;;;18.64;28.47;102898.63;5078436;27;45388;-49
2022/03/19 06:46:17;;;;;;;;;19.25;17.50;;;;;18.63;28.32;102899.50;5078391;28;45485;-48
2022/03/19 06:48:42;;;;;;;;;17.00;17.00;;;;;18.64;28.43;102898.63;5077733;27;45456;-46
2022/03/19 06:51:07;;;;;;;;;12.00;12.00;;;;;18.64;28.43;102898.63;5078003;27;45887;-51
2022/03/19 06:53:33;;;;;;;;;21.25;16.50;;;;;18.64;28.74;102888.97;5076490;28;45291;-49
2022/03/19 06:55:59;;;;;;;;;17.75;16.00;;;;;18.65;28.65;102903.00;5077923;28;45370;-50
2022/03/19 06:58:24;;;;;;;;;22.25;17.25;;;;;18.66;28.68;102904.72;5078288;27;45546;-51
2022/03/19 07:00:50;;;;;;;;;15.50;14.50;;;;;18.66;28.61;102896.84;5077820;27;45788;-50
2022/03/19 07:03:15;;;;;;;;;24.00;21.00;;;;;18.65;28.41;102900.38;5077759;27;45366;-50
2022/03/19 07:05:40;;;;;;;;;19.00;17.75;;;;;18.64;28.40;102894.22;5078019;27;45338;-46
2022/03/19 07:08:08;;;;;;;;;24.25;18.75;;;;;18.65;28.49;102889.84;5077902;27;45433;-50
2022/03/19 07:10:34;;;;;;;;;23.00;19.25;;;;;18.64;29.02;102901.25;5077650;27;46384;-45
2022/03/19 07:12:59;;;;;;;;;23.25;20.25;;;;;18.63;29.13;102892.47;5077547;27;45393;-47
2022/03/19 07:15:30;;;;;;;;;26.00;22.75;;;;;18.62;29.07;102897.78;5077975;27;45389;-53
2022/03/19 07:17:56;;;;;;;;;22.00;18.25;;;;;18.63;28.89;102894.25;5078639;27;45231;-51
2022/03/19 07:20:22;;;;;;;;;19.50;18.00;;;;;18.62;29.16;102888.16;5077932;27;46186;-53
2022/03/19 07:22:48;;;;;;;;;29.75;26.25;;;;;18.63;29.10;102899.50;5077877;27;45376;-55
2022/03/19 07:25:14;;;;;;;;;26.75;23.25;;;;;18.64;29.16;102896.00;5077914;27;45462;-52
2022/03/19 07:27:40;;;;;;;;;20.50;19.75;;;;;18.63;28.93;102891.63;5077925;28;45370;-57
2022/03/19 07:30:06;;;;;;;;;22.50;22.25;;;;;18.61;29.30;102889.03;5077542;27;46088;-55
2022/03/19 07:32:31;;;;;;;;;25.00;23.00;;;;;18.62;29.27;102895.13;5077492;27;45317;-55
2022/03/19 07:34:56;;;;;;;;;25.50;20.75;;;;;18.63;29.41;102896.88;5077524;27;45456;-51
2022/03/19 07:37:22;;;;;;;;;24.50;23.25;;;;;18.63;29.15;102896.88;5078186;27;45474;-49
2022/03/19 07:39:47;;;;;;;;;25.00;23.50;;;;;18.63;29.34;102897.72;5077237;27;46123;-49
2022/03/19 07:42:12;;;;;;;;;19.50;16.00;;;;;18.63;29.56;102887.22;5077299;27;45419;-51
2022/03/19 07:44:38;;;;;;;;;21.50;17.25;;;;;18.65;29.47;102900.38;5077452;27;45286;-51
2022/03/19 07:47:03;;;;;;;;;23.50;21.50;;;;;18.66;29.38;102891.59;5077611;27;45362;-50
2022/03/19 07:49:29;;;;;;;;;28.50;24.75;;;;;18.67;29.48;102898.59;5077104;27;45894;-52
2022/03/19 07:51:55;;;;;;;;;26.00;24.75;;;;;18.67;29.42;102891.56;5077521;27;45303;-52
2022/03/19 07:54:23;;;;;;;;;28.00;26.75;;;;;18.67;29.42;102888.06;5077164;27;45457;-48
2022/03/19 07:56:51;;;;;;;;;29.75;27.25;;;;;18.67;29.42;102893.34;5077488;27;45599;-51
2022/03/19 07:59:16;;;;;;;;;30.50;28.25;;;;;18.64;29.45;102894.22;5076691;27;46419;-50
2022/03/19 08:01:42;;;;;;;;;29.25;27.75;;;;;18.65;29.57;102890.72;5076147;27;45417;-48
2022/03/19 08:04:07;;;;;;;;;27.00;22.00;;;;;18.64;29.54;102893.38;5077181;27;45374;-46
2022/03/19 08:06:32;;;;;;;;;28.25;27.00;;;;;18.65;29.67;102884.59;5077284;27;45465;-51
2022/03/19 08:08:58;;;;;;;;;20.33;20.33;;;;;18.62;29.35;102885.53;5077116;27;51046;-48
2022/03/19 08:11:23;;;;;;;;;26.50;26.00;;;;;18.62;29.70;102892.50;5077180;27;45200;-48
2022/03/19 08:13:49;;;;;;;;;28.25;27.00;;;;;18.61;29.69;102889.03;5076982;27;45223;-55
2022/03/19 08:16:14;;;;;;;;;33.25;29.00;;;;;18.60;29.57;102889.03;5077154;27;45393;-51
2022/03/19 08:18:40;;;;;;;;;30.50;29.50;;;;;18.58;29.72;102885.56;5076872;27;45302;-52
2022/03/19 08:21:05;;;;;;;;;30.75;28.00;;;;;18.56;29.62;102885.59;5076834;27;45350;-49
2022/03/19 08:23:31;;;;;;;;;35.75;29.25;;;;;18.56;29.75;102887.38;5075724;28;45364;-48
2022/03/19 08:25:56;;;;;;;;;34.75;29.25;;;;;18.54;29.86;102890.88;5077301;27;45279;-53
2022/03/19 08:28:21;;;;;;;;;39.25;32.25;;;;;18.51;29.77;102887.44;5076623;27;46214;-55
2022/03/19 08:30:47;;;;;;;;;34.75;31.50;;;;;18.45;29.75;102872.63;5076724;27;45181;-56
2022/03/19 08:33:12;;;;;;;;;37.33;31.67;;;;;18.45;30.02;102880.50;5076650;27;45402;-56
2022/03/19 08:35:38;;;;;;;;;38.00;32.50;;;;;18.41;29.96;102873.56;5077014;27;45488;-55
2022/03/19 08:40:47;;;;;;;;;38.50;31.25;;;;;18.40;29.96;102863.94;5076269;28;45347;-51
2022/03/19 08:43:12;;;;;;;;;36.50;30.00;;;;;18.42;30.17;102866.53;5075376;28;45349;-52
2022/03/19 08:45:38;;;;;;;;;44.00;33.25;;;;;18.43;30.04;102861.28;5076759;27;45495;-50
2022/03/19 08:48:03;;;;;;;;;33.50;29.75;;;;;18.45;30.24;102861.25;5076352;27;47072;-55
2022/03/19 08:50:29;;;;;;;;;29.75;26.00;;;;;18.46;29.90;102853.38;5076769;28;45377;-48
2022/03/19 08:52:54;;;;;;;;;30.50;26.25;;;;;18.50;29.93;102860.28;5076387;27;45330;-49
2022/03/19 08:55:20;;;;;;;;;31.50;26.75;;;;;18.54;30.33;102856.75;5075265;27;45415;-47
2022/03/19 08:57:45;;;;;;;;;37.00;29.50;;;;;18.61;30.22;102859.25;5076491;27;46045;-51
2022/03/19 09:00:13;;;;;;;;;27.33;24.33;;;;;18.68;29.98;102853.03;5076421;27;45759;-53
2022/03/19 09:02:38;;;;;;;;;27.25;23.25;;;;;18.73;30.23;102850.34;5076457;27;45280;-45
2022/03/19 09:05:04;;;;;;;;;27.50;23.00;;;;;18.77;30.02;102863.41;5076541;27;45318;-53
2022/03/19 09:07:29;;;;;;;;;28.00;24.00;;;;;18.82;30.02;102855.44;5076337;27;45281;-51
2022/03/19 09:09:55;;;;;;;;;33.50;28.75;;;;;18.85;29.93;102858.88;5076264;27;45333;-53
2022/03/19 09:12:22;;;;;;;;;34.25;31.00;;;;;18.88;30.03;102855.34;5078313;27;45211;-52
2022/03/19 09:14:48;;;;;;;;;31.25;27.50;;;;;18.92;30.17;102850.91;5080057;27;45215;-47
2022/03/19 09:17:13;;;;;;;;;31.00;26.00;;;;;18.95;29.87;102856.13;5079396;28;46521;-47
2022/03/19 09:19:39;;;;;;;;;28.67;28.67;;;;;18.98;30.11;102861.34;5079558;27;45329;-47
2022/03/19 09:22:05;;;;;;;;;29.25;26.50;;;;;19.00;30.31;102864.84;5079461;27;45531;-49
2022/03/19 09:24:30;;;;;;;;;33.75;29.25;;;;;19.04;30.18;102844.63;5080079;27;45313;-49
2022/03/19 09:26:55;;;;;;;;;25.75;22.75;;;;;19.05;30.18;102847.22;5079385;27;46665;-51
2022/03/19 09:29:21;;;;;;;;;28.33;25.33;;;;;19.08;30.05;102846.28;5079399;27;45736;-50
2022/03/19 09:31:46;;;;;;;;;28.33;25.67;;;;;19.10;30.15;102855.91;5079144;28;45404;-51
2022/03/19 09:34:12;;;;;;;;;28.25;25.25;;;;;19.08;30.10;102839.28;5079428;27;45536;-47
2022/03/19 09:36:37;;;;;;;;;27.00;23.00;;;;;19.13;30.15;102834.78;5079209;27;46054;-52
2022/03/19 09:39:03;;;;;;;;;25.50;24.50;;;;;19.16;30.18;102840.00;5079489;27;45299;-46
2022/03/19 09:41:28;;;;;;;;;27.00;26.00;;;;;19.13;30.37;102832.16;5079612;27;45417;-53
2022/03/19 09:43:57;;;;;;;;;31.25;25.00;;;;;19.16;30.37;102833.91;5079517;28;45564;-52
2022/03/19 09:46:23;;;;;;;;;31.50;25.75;;;;;19.21;30.34;102847.81;5079074;27;46234;-51
2022/03/19 09:48:48;;;;;;;;;27.25;23.25;;;;;19.23;30.07;102837.28;5079235;27;45547;-52
2022/03/19 09:51:16;;;;;;;;;26.75;25.25;;;;;19.26;30.36;102837.22;5079188;27;45346;-52
2022/03/19 09:53:43;;;;;;;;;25.50;25.50;;;;;19.27;30.02;102837.19;5078241;28;45438;-51
2022/03/19 09:56:10;;;;;;;;;31.50;27.25;;;;;19.30;30.18;102836.28;5078871;27;46414;-51
2022/03/19 09:58:35;;;;;;;;;28.50;25.00;;;;;19.30;30.29;102836.28;5078966;27;45791;-52
2022/03/19 10:01:07;;;;;;;;;28.25;23.00;;;;;19.31;30.02;102833.59;5079411;27;45330;-50
2022/03/19 10:03:38;;;;;;;;;26.25;24.00;;;;;19.33;29.89;102828.34;5079770;27;45360;-46
2022/03/19 10:08:56;;;;;;;;;29.25;26.75;;;;;19.34;30.09;102827.44;5078843;27;45351;-51
2022/03/19 10:11:21;;;;;;;;;31.25;27.50;;;;;19.33;29.90;102824.81;5079013;27;45392;-53
2022/03/19 10:13:49;;;;;;;;;29.25;27.75;;;;;19.33;29.77;102823.06;5079054;27;45172;-53
2022/03/19 10:16:28;;;;;;;;;27.50;25.25;;;;;19.33;30.13;102823.06;5077050;27;48383;-51
2022/03/19 10:19:03;;;;;;;;;27.25;26.00;;;;;19.32;30.11;102816.09;5078686;27;45825;-51
2022/03/19 10:21:34;;;;;;;;;28.75;25.75;;;;;19.31;30.14;102822.22;5078601;27;45248;-52
2022/03/19 10:24:01;;;;;;;;;30.75;27.75;;;;;19.32;29.94;102808.19;5078420;27;45393;-52
2022/03/19 10:26:29;;;;;;;;;25.50;22.75;;;;;19.32;30.35;102808.19;5077274;28;47059;-55
2022/03/19 10:29:03;;;;;;;;;30.75;26.00;;;;;19.33;30.36;102804.66;5078613;27;45343;-44
2022/03/19 10:31:30;;;;;;;;;28.75;26.00;;;;;19.34;30.22;102808.16;5078467;27;45606;-51
2022/03/19 10:33:55;;;;;;;;;25.75;24.75;;;;;19.33;30.36;102798.53;5078899;27;45220;-52
2022/03/19 10:36:29;;;;;;;;;28.25;27.50;;;;;19.35;31.36;102813.38;5078328;27;45277;-50
2022/03/19 10:38:55;;;;;;;;;31.00;26.50;;;;;19.35;31.50;102792.34;5078573;27;45420;-47
2022/03/19 10:41:21;;;;;;;;;29.00;26.50;;;;;19.36;32.04;102796.69;5078329;27;45426;-49
2022/03/19 10:43:47;;;;;;;;;28.50;26.75;;;;;19.37;32.26;102795.81;5078510;28;45429;-50
2022/03/19 10:46:17;;;;;;;;;32.25;27.00;;;;;19.38;32.92;102794.06;5078111;28;46656;-49
2022/03/19 10:48:48;;;;;;;;;29.50;26.00;;;;;19.38;33.60;102797.53;5078327;27;45879;-52
2022/03/19 10:51:13;;;;;;;;;30.25;26.25;;;;;19.38;33.67;102797.53;5078374;28;45440;-52
2022/03/19 10:53:39;;;;;;;;;33.25;28.00;;;;;19.39;33.90;102788.75;5078323;27;45382;-45
2022/03/19 10:56:06;;;;;;;;;34.75;28.00;;;;;19.41;34.35;102780.84;5077913;27;51980;-49
2022/03/19 10:58:32;;;;;;;;;30.25;29.00;;;;;19.43;34.00;102777.28;5078308;27;45916;-51
2022/03/19 11:01:00;;;;;;;;;31.00;26.00;;;;;19.46;33.51;102768.47;5077957;27;45322;-49
2022/03/19 11:03:28;;;;;;;;;30.75;27.50;;;;;19.46;33.34;102773.72;5078218;27;45174;-51
2022/03/19 11:06:04;;;;;;;;;27.50;24.75;;;;;19.50;34.04;102785.06;5077806;27;47167;-52
2022/03/19 11:08:34;;;;;;;;;29.75;26.25;;;;;19.50;33.94;102775.41;5076641;27;45772;-48
2022/03/19 11:11:04;;;;;;;;;29.00;25.75;;;;;19.52;33.53;102767.47;5078036;28;45213;-48
2022/03/19 11:13:35;;;;;;;;;35.75;29.25;;;;;19.50;33.68;102764.91;5078191;27;45437;-50
2022/03/19 11:16:01;;;;;;;;;31.00;27.00;;;;;19.51;33.78;102766.63;5077557;27;46262;-52
2022/03/19 11:18:27;;;;;;;;;30.25;28.00;;;;;19.51;33.51;102765.75;5077634;28;45231;-56
2022/03/19 11:20:53;;;;;;;;;28.25;24.25;;;;;19.50;33.30;102758.75;5077661;27;45346;-55
2022/03/19 11:23:28;;;;;;;;;29.75;26.00;;;;;19.49;33.58;102757.91;5076606;27;45457;-59
2022/03/19 11:25:55;;;;;;;;;25.00;23.50;;;;;19.50;33.69;102750.88;5077676;27;45387;-54
2022/03/19 11:28:21;;;;;;;;;30.00;26.25;;;;;19.50;33.41;102751.75;5077686;27;45420;-52